Portada
METAR-TAF:

METAR-TAF

Aeroports :

Kasane, Botswana

latitud: 17-49S, longitud: 025-09E, altitud: 968 m

Observació

L'informe es va fer fa 43 minuts, a les 04:00 UTC
Vent 5 kt del Est
Temperatura 20°C
Humitat 100%
Pressió 1018 hPa
Visibilitat 10 km o més
Escasses núvols a una alçada de 2000 ft
Cel ennuvolat a una alçada de 6500 ft

METAR: FBKE 280400Z 09005KT 9999 FEW020 BKN065 20/20 Q1018

Hora: 06:43 (04:43 UTC)

Pronòstic

L'informe es va fer fa 16 hores i 43 minuts, a les 12:00 UTC
Pronòstic vàlid del 27 a les 15 UTC al 27 a les 24 UTC
Vent 5 kt del Nord-Est
Visibilitat 10 km o més
Núvols disperses a una alçada de 2500 ft
Escasses núvols a una alçada de 3500 ft, Cumulonimbus.

TAF: FBKE 271200Z 2715/2724 05005KT 9999 SCT025 FEW035CB

Observacions i pronòstics meteorològics de més de 4000 aeroports (METAR i TAF).

Les estacions disponibles són els punts grocs i vermells al mapa.

Posi el ratolí al punt desitjat per veure el nom de l'estació.

Feu clic per veure les observacions i els pronòstics meteorològics.

Per canviar el mapa: feu clic els botons verds amb una creu de color negre per apropar; al botó verd amb un guió per allunyar la imatge; o en les fletxes verdes per a mapes adjacents.


METAR-TAF: